Time;durP1;ratioP1;P1;durP2;ratioP2;P2;SDS_P1;SDS_P2;PMS_P1;PMS_P2;Temp;Humidity;BMP_temperature;BMP_pressure;BME280_temperature;BME280_humidity;BME280_pressure;Samples;Min_cycle;Max_cycle;Signal;HPM_P1;HPM_P2
2023/04/28 00:00:12;;;;;;;0.40;0.30;;;;;;;9.00;73.48;95436.66;5071607;28;20434;-71
2023/04/28 00:02:40;;;;;;;0.60;0.30;;;;;;;9.18;72.78;95446.81;5071116;28;20430;-70
2023/04/28 00:05:09;;;;;;;0.40;0.30;;;;;;;8.68;72.72;95360.91;5072121;28;20476;-70
2023/04/28 00:07:38;;;;;;;0.40;0.33;;;;;;;9.64;73.17;95442.53;5071375;28;20445;-70
2023/04/28 00:10:07;;;;;;;0.40;0.30;;;;;;;9.94;72.23;95442.59;5071402;28;20445;-70
2023/04/28 00:12:36;;;;;;;0.40;0.30;;;;;;;10.01;76.56;95440.50;5071560;28;20813;-69
2023/04/28 00:15:06;;;;;;;0.40;0.30;;;;;;;9.69;71.25;95385.09;5071946;28;20527;-70
2023/04/28 00:17:34;;;;;;;0.80;0.30;;;;;;;9.32;69.95;95446.09;5071516;28;20456;-70
2023/04/28 00:20:04;;;;;;;1.23;1.23;;;;;;;9.10;70.72;95452.59;5071794;28;20807;-70
2023/04/28 00:22:32;;;;;;;0.70;0.70;;;;;;;9.14;71.22;95446.53;5071371;28;20458;-70
2023/04/28 00:25:00;;;;;;;1.23;1.03;;;;;;;9.11;70.27;95452.31;5071491;28;20559;-70
2023/04/28 00:27:29;;;;;;;0.50;0.50;;;;;;;9.21;70.02;95455.00;5071122;28;20449;-70
2023/04/28 00:29:57;;;;;;;0.40;0.30;;;;;;;9.25;72.20;95458.75;5071721;28;20448;-71
2023/04/28 00:32:27;;;;;;;0.40;0.30;;;;;;;8.77;71.92;95385.81;5071618;28;20512;-70
2023/04/28 00:34:57;;;;;;;0.40;0.30;;;;;;;8.79;70.97;95456.88;5070525;28;20477;-71
2023/04/28 00:37:25;;;;;;;0.93;0.47;;;;;;;9.30;69.92;95460.63;5070812;28;20474;-70
2023/04/28 00:39:55;;;;;;;0.40;0.30;;;;;;;9.33;69.53;95452.19;5070316;28;21046;-70
2023/04/28 00:42:23;;;;;;;0.40;0.30;;;;;;;8.56;69.83;95460.69;5071244;28;20437;-71
2023/04/28 00:44:52;;;;;;;1.70;1.60;;;;;;;8.35;70.28;95437.03;5071268;28;20545;-71
2023/04/28 00:47:20;;;;;;;0.40;0.30;;;;;;;9.01;69.48;95441.69;5070997;28;20433;-71
2023/04/28 00:49:51;;;;;;;0.40;0.30;;;;;;;9.03;68.70;95450.19;5070933;28;20532;-71
2023/04/28 00:52:19;;;;;;;0.40;0.30;;;;;;;9.15;69.34;95463.19;5070918;28;20438;-71
2023/04/28 00:54:47;;;;;;;0.40;0.33;;;;;;;8.82;69.00;95448.47;5071097;28;20990;-70
2023/04/28 00:57:16;;;;;;;0.50;0.43;;;;;;;8.38;70.33;95463.69;5071337;28;20473;-71
2023/04/28 00:59:44;;;;;;;0.47;0.40;;;;;;;8.16;70.91;95463.75;5070721;28;20437;-71
2023/04/28 01:02:16;;;;;;;0.70;0.40;;;;;;;6.78;70.77;95261.38;5070939;28;20986;-71
2023/04/28 01:04:45;;;;;;;0.70;0.53;;;;;;;8.07;70.67;95465.25;5071315;28;20452;-71
2023/04/28 01:07:15;;;;;;;0.83;0.83;;;;;;;8.05;70.70;95464.69;5070515;28;20430;-70
2023/04/28 01:09:45;;;;;;;1.23;1.23;;;;;;;7.65;71.92;95451.88;5071314;28;20469;-71
2023/04/28 01:12:13;;;;;;;1.07;0.97;;;;;;;7.99;71.82;95460.44;5070608;28;20483;-70
2023/04/28 01:14:42;;;;;;;0.73;0.30;;;;;;;7.24;72.15;95393.66;5071407;28;20496;-71
2023/04/28 01:17:10;;;;;;;0.40;0.30;;;;;;;7.65;72.00;95470.34;5070361;28;20436;-70
2023/04/28 01:19:39;;;;;;;0.93;0.93;;;;;;;7.45;72.03;95471.94;5070941;28;20445;-70
2023/04/28 01:22:09;;;;;;;1.27;1.17;;;;;;;7.49;72.77;95473.84;5071008;28;20437;-69
2023/04/28 01:24:39;;;;;;;0.40;0.33;;;;;;;6.89;71.65;95368.47;5070900;28;21012;-70
2023/04/28 01:27:07;;;;;;;0.50;0.40;;;;;;;7.56;72.23;95471.03;5071937;28;20921;-70
2023/04/28 01:29:35;;;;;;;1.33;0.80;;;;;;;7.65;72.77;95475.63;5074800;28;20442;-70
2023/04/28 01:32:04;;;;;;;0.70;0.63;;;;;;;7.27;71.71;95459.06;5074083;28;20878;-70
2023/04/28 01:34:32;;;;;;;0.30;0.30;;;;;;;7.29;72.02;95475.44;5074222;28;20469;-70
2023/04/28 01:37:00;;;;;;;0.83;0.40;;;;;;;7.41;73.71;95476.13;5074204;28;20593;-70
2023/04/28 01:39:28;;;;;;;1.00;0.90;;;;;;;7.50;72.28;95472.81;5074185;28;20811;-70
2023/04/28 01:41:58;;;;;;;0.40;0.30;;;;;;;7.15;72.05;95475.00;5074238;28;20434;-70
2023/04/28 01:44:27;;;;;;;2.20;0.43;;;;;;;6.99;72.75;95412.59;5073295;28;20441;-70
2023/04/28 01:46:55;;;;;;;0.60;0.40;;;;;;;7.49;71.70;95481.75;5074241;28;21025;-71
2023/04/28 01:49:23;;;;;;;0.40;0.30;;;;;;;7.44;71.76;95484.34;5073908;28;20442;-70
2023/04/28 01:51:51;;;;;;;0.53;0.53;;;;;;;7.27;72.15;95495.97;5074237;28;20446;-70
2023/04/28 01:54:20;;;;;;;0.40;0.30;;;;;;;7.32;73.02;95486.28;5074024;28;20480;-71
2023/04/28 01:56:48;;;;;;;0.50;0.40;;;;;;;7.34;73.82;95443.84;5074505;28;20442;-70
2023/04/28 01:59:19;;;;;;;0.40;0.37;;;;;;;7.47;71.94;95490.94;5073873;28;21095;-71
2023/04/28 02:01:47;;;;;;;0.43;0.43;;;;;;;7.25;72.77;95496.22;5073775;28;20485;-71
2023/04/28 02:04:16;;;;;;;1.87;0.60;;;;;;;7.49;73.35;95489.66;5073801;28;20520;-70
2023/04/28 02:06:45;;;;;;;0.87;0.40;;;;;;;7.61;72.71;95495.59;5062992;28;20522;-71
2023/04/28 02:09:13;;;;;;;0.60;0.40;;;;;;;6.90;72.41;95437.78;5071246;28;20785;-70
2023/04/28 02:11:41;;;;;;;0.60;0.60;;;;;;;7.49;73.17;95497.56;5074017;28;20442;-71
2023/04/28 02:14:09;;;;;;;0.40;0.30;;;;;;;7.10;72.96;95492.59;5073520;28;20495;-71
2023/04/28 02:16:39;;;;;;;1.50;1.40;;;;;;;6.93;73.66;95503.16;5073788;28;20441;-71
2023/04/28 02:19:07;;;;;;;1.43;1.27;;;;;;;6.99;73.06;95508.25;5073464;28;20440;-71
2023/04/28 02:21:36;;;;;;;0.40;0.40;;;;;;;6.88;72.70;95498.59;5073388;28;20579;-71
2023/04/28 02:24:05;;;;;;;9.30;0.50;;;;;;;6.91;72.16;95502.59;5046775;28;20524;-70
2023/04/28 02:26:34;;;;;;;0.67;0.40;;;;;;;7.50;74.14;95507.09;5073254;28;20468;-71
2023/04/28 02:29:03;;;;;;;0.40;0.30;;;;;;;7.55;73.06;95498.44;5073353;28;20515;-71
2023/04/28 02:31:32;;;;;;;0.40;0.30;;;;;;;7.67;71.43;95505.19;5073271;28;20438;-70
2023/04/28 02:34:01;;;;;;;0.50;0.37;;;;;;;7.39;72.78;95513.28;5072406;28;20434;-71
2023/04/28 02:36:30;;;;;;;0.40;0.30;;;;;;;7.18;71.45;95466.63;5073481;28;20532;-70
2023/04/28 02:38:59;;;;;;;0.30;0.20;;;;;;;7.54;71.70;95518.75;5071816;28;20456;-70
2023/04/28 02:41:28;;;;;;;1.10;0.67;;;;;;;7.13;71.19;95523.72;5072644;28;20948;-70
2023/04/28 02:43:57;;;;;;;0.47;0.47;;;;;;;7.14;72.65;95523.47;5073091;28;20438;-70
2023/04/28 02:46:25;;;;;;;0.40;0.40;;;;;;;7.10;71.88;95530.28;5073114;28;20437;-70
2023/04/28 02:48:53;;;;;;;0.50;0.50;;;;;;;7.06;73.15;95537.06;5072858;28;20517;-70
2023/04/28 02:51:23;;;;;;;0.50;0.40;;;;;;;7.08;73.10;95532.38;5071682;28;20458;-69
2023/04/28 02:53:51;;;;;;;1.03;0.30;;;;;;;7.18;71.58;95521.16;5064619;28;20812;-71
2023/04/28 02:56:20;;;;;;;0.47;0.30;;;;;;;7.20;75.32;95525.16;5067863;28;20478;-71
2023/04/28 02:58:48;;;;;;;0.40;0.30;;;;;;;7.46;74.00;95534.22;5064555;28;20437;-70
2023/04/28 03:01:16;;;;;;;0.40;0.30;;;;;;;7.17;73.50;95528.28;5072651;28;20464;-70
2023/04/28 03:03:45;;;;;;;0.37;0.27;;;;;;;6.93;77.24;95497.91;5072511;28;20487;-70
2023/04/28 03:06:13;;;;;;;0.50;0.30;;;;;;;6.88;72.91;95521.53;5072411;28;20499;-70
2023/04/28 03:08:43;;;;;;;0.47;0.40;;;;;;;6.75;73.14;95543.72;5072155;28;20465;-70
2023/04/28 03:11:11;;;;;;;0.40;0.40;;;;;;;6.71;76.44;95550.50;5072557;28;20441;-71
2023/04/28 03:13:40;;;;;;;0.30;0.20;;;;;;;6.52;74.33;95546.50;5071728;28;20979;-70
2023/04/28 03:16:08;;;;;;;0.40;0.40;;;;;;;6.47;77.10;95540.34;5072191;28;20477;-70
2023/04/28 03:18:37;;;;;;;0.43;0.37;;;;;;;6.87;72.74;95554.16;5072445;28;20806;-70
2023/04/28 03:21:05;;;;;;;0.50;0.40;;;;;;;6.95;74.15;95517.69;5072551;28;20526;-70
2023/04/28 03:23:33;;;;;;;0.40;0.30;;;;;;;7.32;71.52;95554.84;5071822;28;20532;-70
2023/04/28 03:26:03;;;;;;;1.27;1.23;;;;;;;6.64;71.23;95543.78;5071867;28;20473;-70
2023/04/28 03:28:31;;;;;;;0.40;0.40;;;;;;;6.77;77.03;95561.91;5071711;28;20546;-70
2023/04/28 03:31:01;;;;;;;0.40;0.30;;;;;;;6.82;72.80;95568.06;5072046;28;20807;-70
2023/04/28 03:33:29;;;;;;;0.30;0.30;;;;;;;6.72;72.81;95567.09;5070617;28;20431;-69
2023/04/28 03:35:57;;;;;;;0.67;0.67;;;;;;;6.67;73.30;95574.91;5074202;28;20552;-70
2023/04/28 03:38:26;;;;;;;1.13;0.40;;;;;;;6.66;72.98;95575.94;5071938;28;20433;-69
2023/04/28 03:40:55;;;;;;;0.40;0.30;;;;;;;6.58;74.51;95577.13;5071840;28;20521;-70
2023/04/28 03:43:24;;;;;;;2.03;1.93;;;;;;;6.45;73.82;95574.81;5071498;28;20930;-69
2023/04/28 03:45:53;;;;;;;0.43;0.43;;;;;;;6.44;72.60;95540.81;5072108;28;20448;-69
2023/04/28 03:48:21;;;;;;;0.40;0.40;;;;;;;6.95;72.50;95595.94;5071742;28;20508;-69
2023/04/28 03:50:51;;;;;;;2.10;0.50;;;;;;;6.49;72.59;95599.63;5071319;28;20461;-69
2023/04/28 03:53:19;;;;;;;4.57;0.67;;;;;;;6.36;73.18;95592.81;5072098;28;20448;-69
2023/04/28 03:55:48;;;;;;;3.33;1.90;;;;;;;6.38;72.80;95601.28;5070860;28;20473;-69
2023/04/28 03:58:16;;;;;;;0.40;0.30;;;;;;;6.14;73.73;95612.13;5071559;28;20445;-68
2023/04/28 04:00:46;;;;;;;0.47;0.47;;;;;;;6.36;75.23;95616.50;5071104;28;20435;-67
2023/04/28 04:03:14;;;;;;;0.57;0.50;;;;;;;6.06;74.07;95623.03;5071626;28;20537;-68
2023/04/28 04:05:43;;;;;;;1.33;0.73;;;;;;;5.98;75.42;95628.63;5071234;28;20525;-69
2023/04/28 04:08:12;;;;;;;0.60;0.60;;;;;;;5.80;75.63;95592.75;5071604;28;20442;-69
2023/04/28 04:10:40;;;;;;;0.43;0.30;;;;;;;6.31;74.38;95620.88;5071265;28;20780;-69
2023/04/28 04:13:08;;;;;;;0.40;0.30;;;;;;;6.27;75.03;95617.13;5071746;28;20470;-69
2023/04/28 04:15:37;;;;;;;0.87;0.87;;;;;;;6.55;74.04;95621.59;5071491;28;20487;-68
2023/04/28 04:18:06;;;;;;;0.40;0.30;;;;;;;7.04;72.74;95611.09;5070818;28;20437;-67
2023/04/28 04:20:35;;;;;;;0.57;0.57;;;;;;;6.80;70.58;95620.19;5071145;28;20484;-68
2023/04/28 04:23:03;;;;;;;1.10;0.80;;;;;;;7.06;70.97;95618.75;5071175;28;20513;-68
2023/04/28 04:25:32;;;;;;;0.40;0.40;;;;;;;6.89;70.79;95625.84;5069916;28;20564;-67
2023/04/28 04:28:00;;;;;;;2.40;0.87;;;;;;;6.90;69.49;95627.47;5071191;28;20467;-67
2023/04/28 04:30:28;;;;;;;0.73;0.57;;;;;;;7.00;68.59;95638.19;5070862;28;20445;-67
2023/04/28 04:32:57;;;;;;;0.50;0.50;;;;;;;7.13;68.09;95627.31;5071268;28;20442;-66
2023/04/28 04:35:27;;;;;;;0.80;0.80;;;;;;;7.46;67.70;95634.41;5045440;28;20809;-61
2023/04/28 04:37:55;;;;;;;0.40;0.37;;;;;;;7.92;73.21;95626.06;5069425;28;20456;-59
2023/04/28 04:40:24;;;;;;;0.40;0.40;;;;;;;8.37;72.98;95631.16;5071226;28;20813;-58
2023/04/28 04:42:52;;;;;;;0.70;0.70;;;;;;;8.65;66.40;95638.03;5070575;28;20521;-59
2023/04/28 04:45:21;;;;;;;0.50;0.50;;;;;;;8.71;62.76;95642.31;5071185;28;20503;-59
2023/04/28 04:47:49;;;;;;;15.13;1.00;;;;;;;8.80;64.96;95631.03;5070926;28;20438;-59
2023/04/28 04:50:18;;;;;;;0.40;0.40;;;;;;;8.65;61.98;95643.34;5070819;28;20499;-59
2023/04/28 04:52:48;;;;;;;1.03;0.40;;;;;;;8.28;61.03;95643.19;5070733;28;20445;-60
2023/04/28 04:55:16;;;;;;;2.87;1.00;;;;;;;8.02;59.97;95644.66;5070481;28;20442;-59
2023/04/28 04:57:44;;;;;;;0.40;0.37;;;;;;;8.12;59.79;95612.34;5070617;28;20975;-59
2023/04/28 05:00:14;;;;;;;0.40;0.30;;;;;;;7.90;59.96;95603.59;5070786;28;20437;-59
2023/04/28 05:02:42;;;;;;;0.50;0.30;;;;;;;8.82;61.53;95636.09;5072658;28;20449;-59
2023/04/28 05:05:11;;;;;;;0.40;0.30;;;;;;;9.04;57.65;95638.66;5074252;28;20441;-59
2023/04/28 05:07:51;;;;;;;0.40;0.30;;;;;;;9.35;57.72;95643.16;5074455;28;20800;-59
2023/04/28 05:10:19;;;;;;;0.30;0.30;;;;;;;9.51;58.44;95639.59;5075048;28;20440;-60
2023/04/28 05:12:48;;;;;;;0.40;0.30;;;;;;;9.12;57.77;95609.13;5048313;28;20445;-60
2023/04/28 05:15:16;;;;;;;0.30;0.30;;;;;;;9.31;58.28;95642.84;5074497;28;20969;-60
2023/04/28 05:17:44;;;;;;;0.40;0.33;;;;;;;8.90;58.30;95588.84;5074407;28;20515;-60
2023/04/28 05:20:13;;;;;;;0.40;0.30;;;;;;;9.39;57.20;95649.53;5074482;28;20441;-60
2023/04/28 05:22:41;;;;;;;0.40;0.37;;;;;;;9.66;56.66;95650.28;5074233;28;20437;-60
2023/04/28 05:25:11;;;;;;;0.40;0.40;;;;;;;9.38;57.03;95643.47;5074006;28;20469;-59
2023/04/28 05:27:39;;;;;;;0.40;0.30;;;;;;;9.40;57.42;95651.94;5074394;28;20437;-61
2023/04/28 05:30:09;;;;;;;0.40;0.30;;;;;;;9.47;55.92;95606.72;5074458;28;20491;-59
2023/04/28 05:32:38;;;;;;;0.37;0.27;;;;;;;9.99;55.48;95649.16;5074847;28;20516;-59
2023/04/28 05:35:07;;;;;;;0.37;0.27;;;;;;;10.24;55.24;95659.09;5073861;28;20437;-60
2023/04/28 05:37:37;;;;;;;0.30;0.20;;;;;;;10.76;53.90;95649.19;5074567;28;20499;-59
2023/04/28 05:40:06;;;;;;;0.40;0.30;;;;;;;10.93;54.16;95641.78;5074254;28;20465;-60
2023/04/28 05:42:36;;;;;;;0.33;0.27;;;;;;;10.82;53.53;95646.31;5074117;28;20441;-60
2023/04/28 05:45:06;;;;;;;0.40;0.40;;;;;;;10.33;52.72;95654.88;5073489;28;20434;-60
2023/04/28 05:47:34;;;;;;;0.37;0.27;;;;;;;10.99;51.31;95653.22;5074389;28;20449;-60
2023/04/28 05:50:02;;;;;;;0.40;0.30;;;;;;;10.75;52.27;95658.22;5073814;28;20449;-61
2023/04/28 05:52:31;;;;;;;0.43;0.43;;;;;;;10.88;50.60;95659.56;5074117;28;20867;-61
2023/04/28 05:54:59;;;;;;;0.93;0.93;;;;;;;10.16;51.00;95615.34;5047631;28;20438;-60
2023/04/28 05:57:27;;;;;;;0.37;0.30;;;;;;;10.60;50.94;95663.47;5059511;28;20505;-61
2023/04/28 06:00:02;;;;;;;0.60;0.60;;;;;;;11.05;48.74;95660.94;5073530;28;20517;-61
2023/04/28 06:02:30;;;;;;;0.40;0.30;;;;;;;10.58;49.18;95605.41;5072777;28;20507;-61
2023/04/28 06:04:59;;;;;;;0.40;0.40;;;;;;;11.42;49.46;95653.50;5073119;28;20434;-61
2023/04/28 06:07:28;;;;;;;0.43;0.30;;;;;;;11.83;48.73;95658.81;5073384;28;20445;-61
2023/04/28 06:09:56;;;;;;;0.30;0.20;;;;;;;12.40;47.57;95653.88;5073813;28;20528;-61
2023/04/28 06:12:25;;;;;;;0.40;0.30;;;;;;;12.58;47.68;95653.25;5073796;28;20447;-61
2023/04/28 06:14:54;;;;;;;0.30;0.20;;;;;;;13.19;46.66;95623.66;5073506;28;20525;-59
2023/04/28 06:17:24;;;;;;;0.80;0.60;;;;;;;13.27;45.99;95647.03;5072404;28;20476;-61
2023/04/28 06:19:53;;;;;;;0.40;0.30;;;;;;;13.64;44.99;95636.59;5073207;28;20471;-59
2023/04/28 06:22:21;;;;;;;0.40;0.40;;;;;;;14.08;44.82;95644.44;5073428;28;20476;-59
2023/04/28 06:24:49;;;;;;;0.50;0.33;;;;;;;13.62;46.42;95645.94;5072974;28;20475;-59
2023/04/28 06:27:18;;;;;;;0.40;0.30;;;;;;;14.48;45.55;95645.88;5073211;28;20532;-61
2023/04/28 06:29:46;;;;;;;0.40;0.30;;;;;;;14.24;43.93;95642.41;5073079;28;20525;-60
2023/04/28 06:32:15;;;;;;;0.40;0.30;;;;;;;14.53;44.09;95635.94;5073036;28;20433;-60
2023/04/28 06:34:44;;;;;;;0.40;0.30;;;;;;;14.78;42.09;95594.00;5072744;28;20450;-59
2023/04/28 06:37:13;;;;;;;0.40;0.30;;;;;;;14.55;42.30;95640.97;5072287;28;20472;-60
2023/04/28 06:39:41;;;;;;;0.50;0.40;;;;;;;14.39;41.38;95597.72;5072194;28;20524;-59
2023/04/28 06:42:10;;;;;;;0.40;0.33;;;;;;;14.92;40.92;95633.03;5073106;28;20871;-59
2023/04/28 06:44:38;;;;;;;1.00;1.00;;;;;;;14.62;40.55;95583.53;5073276;28;20859;-59
2023/04/28 06:47:06;;;;;;;0.40;0.30;;;;;;;15.85;39.68;95627.56;5072938;28;20441;-59
2023/04/28 06:49:35;;;;;;;0.40;0.40;;;;;;;15.58;41.36;95626.72;5072958;28;20468;-59
2023/04/28 06:52:06;;;;;;;0.50;0.50;;;;;;;16.28;40.77;95625.44;5072487;28;20464;-59
2023/04/28 06:54:37;;;;;;;0.40;0.30;;;;;;;16.71;39.72;95612.53;5072840;28;20525;-59
2023/04/28 06:57:05;;;;;;;0.40;0.37;;;;;;;16.39;40.13;95623.34;5072817;28;20502;-60
2023/04/28 06:59:33;;;;;;;0.50;0.50;;;;;;;16.29;40.54;95621.66;5072445;28;21071;-59
2023/04/28 07:02:02;;;;;;;0.40;0.30;;;;;;;16.40;38.37;95617.69;5072345;28;20441;-59
2023/04/28 07:04:30;;;;;;;0.80;0.30;;;;;;;16.08;37.61;95619.69;5072662;28;20457;-59
2023/04/28 07:06:58;;;;;;;0.47;0.30;;;;;;;16.91;37.07;95616.66;5072665;28;20446;-59
2023/04/28 07:09:28;;;;;;;0.40;0.30;;;;;;;17.03;36.42;95608.88;5072604;28;20434;-60
2023/04/28 07:11:58;;;;;;;0.40;0.30;;;;;;;17.91;35.35;95610.78;5072368;28;20437;-60
2023/04/28 07:14:26;;;;;;;0.40;0.30;;;;;;;16.70;40.97;95610.16;5072336;28;20942;-61
2023/04/28 07:16:55;;;;;;;0.47;0.47;;;;;;;16.70;43.22;95620.84;5072533;28;20488;-61
2023/04/28 07:19:23;;;;;;;0.47;0.43;;;;;;;16.69;44.95;95621.97;5072664;28;20472;-64
2023/04/28 07:21:51;;;;;;;0.40;0.20;;;;;;;17.28;42.87;95616.34;5072023;28;20441;-65
2023/04/28 07:24:19;;;;;;;0.73;0.73;;;;;;;17.06;41.04;95617.13;5071567;28;20442;-64
2023/04/28 07:26:49;;;;;;;0.53;0.40;;;;;;;17.29;43.31;95609.09;5062901;28;20926;-65
2023/04/28 07:29:18;;;;;;;1.00;0.63;;;;;;;16.79;40.95;95603.00;5072181;28;20445;-65
2023/04/28 07:31:46;;;;;;;0.73;0.60;;;;;;;16.79;40.81;95603.00;5072353;28;20459;-65
2023/04/28 07:34:15;;;;;;;0.40;0.30;;;;;;;16.40;40.05;95611.53;5071888;28;20479;-66
2023/04/28 07:36:43;;;;;;;0.40;0.30;;;;;;;17.87;43.46;95596.41;5071798;28;20440;-64
2023/04/28 07:39:12;;;;;;;3.17;0.70;;;;;;;18.50;39.33;95588.00;5071861;28;20437;-63
2023/04/28 07:41:40;;;;;;;0.50;0.37;;;;;;;18.87;38.15;95589.34;5071236;28;20470;-64
2023/04/28 07:44:10;;;;;;;0.60;0.60;;;;;;;17.87;39.35;95591.06;5072107;28;20438;-63
2023/04/28 07:46:38;;;;;;;0.50;0.40;;;;;;;18.39;39.20;95587.47;5071813;28;20425;-63
2023/04/28 07:49:07;;;;;;;0.60;0.47;;;;;;;17.71;37.76;95593.34;5072012;28;20522;-63
2023/04/28 07:51:35;;;;;;;0.40;0.30;;;;;;;17.93;40.25;95579.09;5071236;28;21037;-64
2023/04/28 07:54:03;;;;;;;0.40;0.30;;;;;;;18.78;38.35;95583.97;5071837;28;20494;-64
2023/04/28 07:56:32;;;;;;;0.93;0.43;;;;;;;19.73;35.31;95578.56;5071489;28;20537;-64
2023/04/28 07:59:00;;;;;;;0.87;0.87;;;;;;;18.95;35.32;95583.16;5071727;28;20524;-63
2023/04/28 08:01:30;;;;;;;0.67;0.67;;;;;;;18.72;34.83;95582.50;5046152;28;20442;-63
2023/04/28 08:03:58;;;;;;;0.60;0.40;;;;;;;19.58;36.51;95551.06;5071439;28;20526;-63
2023/04/28 08:06:27;;;;;;;3.63;0.53;;;;;;;20.47;35.97;95563.56;5071637;28;20848;-62
2023/04/28 08:08:55;;;;;;;0.50;0.50;;;;;;;19.13;33.75;95565.97;5071155;28;20492;-61
2023/04/28 08:11:24;;;;;;;0.70;0.70;;;;;;;18.86;34.16;95572.44;5071323;28;20437;-61
2023/04/28 08:13:52;;;;;;;2.30;2.10;;;;;;;18.45;33.62;95568.53;5071073;28;20433;-61
2023/04/28 08:16:21;;;;;;;0.50;0.33;;;;;;;19.80;33.14;95565.41;5071579;28;20445;-60
2023/04/28 08:18:51;;;;;;;1.70;0.40;;;;;;;20.68;32.09;95567.09;5071379;28;20469;-60
2023/04/28 08:21:20;;;;;;;0.40;0.30;;;;;;;21.39;31.54;95564.34;5071211;28;20437;-59
2023/04/28 08:23:48;;;;;;;0.47;0.37;;;;;;;22.32;30.95;95552.88;5071417;28;20442;-60
2023/04/28 08:26:16;;;;;;;0.40;0.30;;;;;;;21.75;30.98;95547.50;5071188;28;20472;-60
2023/04/28 08:28:44;;;;;;;4.30;0.30;;;;;;;22.51;31.58;95548.50;5070906;28;21042;-61
2023/04/28 08:31:13;;;;;;;0.30;0.20;;;;;;;22.55;30.18;95546.69;5071473;28;20437;-61
2023/04/28 08:33:43;;;;;;;1.23;0.90;;;;;;;21.48;31.65;95544.28;5071088;28;20475;-62
2023/04/28 08:36:13;;;;;;;0.40;0.33;;;;;;;22.62;29.12;95530.72;5071519;28;20484;-61
2023/04/28 08:38:42;;;;;;;0.37;0.30;;;;;;;21.01;30.08;95537.53;5075202;28;20577;-62
2023/04/28 08:41:13;;;;;;;0.90;0.80;;;;;;;20.63;29.87;95539.56;5075345;28;20945;-62
2023/04/28 08:43:41;;;;;;;0.60;0.40;;;;;;;21.04;30.00;95519.91;5075783;28;20448;-62
2023/04/28 08:46:10;;;;;;;6.43;0.90;;;;;;;21.76;29.36;95527.47;5075551;28;20441;-62
2023/04/28 08:48:42;;;;;;;2.63;0.60;;;;;;;21.14;28.59;95528.44;5075163;28;20453;-62
2023/04/28 08:51:16;;;;;;;0.67;0.40;;;;;;;21.03;28.65;95521.03;5075650;28;20448;-60
2023/04/28 08:53:50;;;;;;;0.40;0.30;;;;;;;22.47;29.31;95508.97;5075337;28;20484;-61
2023/04/28 08:56:25;;;;;;;0.50;0.37;;;;;;;21.63;28.83;95521.25;5074851;28;20441;-60
2023/04/28 08:58:53;;;;;;;9.10;0.40;;;;;;;21.27;28.86;95519.28;5075268;28;20508;-61
2023/04/28 09:01:22;;;;;;;0.43;0.40;;;;;;;22.31;28.26;95517.00;5074995;28;20491;-61
2023/04/28 09:03:51;;;;;;;0.60;0.40;;;;;;;23.34;27.54;95501.88;5074789;28;20475;-60
2023/04/28 09:06:21;;;;;;;0.40;0.30;;;;;;;24.11;26.79;95499.69;5074955;28;20476;-59
2023/04/28 09:08:50;;;;;;;1.00;1.00;;;;;;;22.24;27.34;95505.19;5074310;28;20460;-60
2023/04/28 09:11:19;;;;;;;2.93;0.77;;;;;;;21.15;28.76;95508.41;5074719;28;20448;-60
2023/04/28 09:13:48;;;;;;;0.70;0.70;;;;;;;20.64;28.77;95506.13;5074367;28;20470;-60
2023/04/28 09:16:16;;;;;;;0.87;0.87;;;;;;;22.30;30.61;95495.72;5064549;28;20438;-56
2023/04/28 09:18:56;;;;;;;0.60;0.50;;;;;;;24.13;28.73;95487.34;5071451;28;20473;-59
2023/04/28 09:21:26;;;;;;;1.80;0.40;;;;;;;23.18;27.08;95493.72;5074377;28;20443;-59
2023/04/28 09:23:54;;;;;;;0.40;0.40;;;;;;;22.94;26.29;95485.72;5074507;28;20448;-62
2023/04/28 09:26:24;;;;;;;0.87;0.83;;;;;;;21.58;27.83;95464.06;5074469;28;20556;-61
2023/04/28 09:28:56;;;;;;;0.93;0.40;;;;;;;22.24;27.40;95476.25;5074503;28;20510;-62
2023/04/28 09:31:26;;;;;;;0.40;0.33;;;;;;;22.03;26.50;95462.09;5074570;28;20441;-62
2023/04/28 09:33:58;;;;;;;0.57;0.30;;;;;;;23.74;27.25;95472.81;5074384;28;20449;-61
2023/04/28 09:36:31;;;;;;;1.80;0.40;;;;;;;23.46;25.46;95468.59;5074458;28;20524;-61
2023/04/28 09:39:01;;;;;;;0.50;0.40;;;;;;;24.07;25.83;95468.97;5074636;28;20556;-61
2023/04/28 09:41:37;;;;;;;0.50;0.40;;;;;;;23.91;27.10;95450.81;5074183;28;20957;-63
2023/04/28 09:44:13;;;;;;;0.40;0.30;;;;;;;24.24;24.99;95377.31;5073666;28;20437;-63
2023/04/28 09:46:43;;;;;;;1.07;0.97;;;;;;;23.08;25.57;95452.88;5060564;28;20438;-62
2023/04/28 09:49:12;;;;;;;1.83;1.73;;;;;;;22.71;26.89;95447.63;5073297;28;20484;-62
2023/04/28 09:51:42;;;;;;;0.40;0.30;;;;;;;22.84;27.17;95350.28;5073739;28;20453;-63
2023/04/28 09:54:11;;;;;;;0.73;0.73;;;;;;;23.44;28.38;95444.59;5073592;28;20473;-62
2023/04/28 09:56:43;;;;;;;0.50;0.30;;;;;;;23.95;26.20;95389.44;5074204;28;20524;-61
2023/04/28 09:59:11;;;;;;;0.47;0.47;;;;;;;23.22;25.75;95428.94;5073508;28;20542;-61
2023/04/28 10:01:41;;;;;;;0.40;0.30;;;;;;;24.34;26.84;95436.38;5073986;28;20461;-62
2023/04/28 10:04:11;;;;;;;0.40;0.30;;;;;;;25.27;27.44;95420.09;5073342;28;20445;-63
2023/04/28 10:06:43;;;;;;;0.40;0.30;;;;;;;23.58;24.91;95426.00;5073514;28;20440;-62
2023/04/28 10:09:12;;;;;;;0.40;0.40;;;;;;;24.19;24.79;95422.84;5073410;28;20481;-61
2023/04/28 10:11:41;;;;;;;0.40;0.30;;;;;;;25.70;25.36;95408.84;5073564;28;20530;-58
2023/04/28 10:14:11;;;;;;;0.40;0.30;;;;;;;25.63;25.67;95406.78;5073202;28;20440;-59
2023/04/28 10:16:39;;;;;;;0.40;0.30;;;;;;;23.80;27.10;95409.19;5073386;28;20442;-58
2023/04/28 10:19:09;;;;;;;0.83;0.83;;;;;;;24.34;26.41;95394.94;5060143;28;20476;-58
2023/04/28 10:21:48;;;;;;;0.40;0.30;;;;;;;25.51;25.85;95371.69;5073198;28;20438;-58
2023/04/28 10:24:21;;;;;;;0.53;0.50;;;;;;;25.39;24.24;95390.06;5072866;28;20954;-58
2023/04/28 10:27:03;;;;;;;0.40;0.30;;;;;;;25.80;23.53;95346.59;5064884;28;20474;-58
2023/04/28 10:29:33;;;;;;;0.40;0.30;;;;;;;25.22;23.76;95386.66;5073648;28;20831;-59
2023/04/28 10:32:21;;;;;;;0.50;0.40;;;;;;;24.95;24.67;95370.66;5072658;28;20525;-59
2023/04/28 10:34:50;;;;;;;0.40;0.40;;;;;;;24.29;24.03;95370.84;5072891;28;20465;-60
2023/04/28 10:37:20;;;;;;;0.50;0.40;;;;;;;25.10;24.02;95345.34;5073011;28;20484;-59
2023/04/28 10:40:26;;;;;;;0.40;0.30;;;;;;;25.94;23.84;95370.44;5072490;28;21254;-58
2023/04/28 10:42:56;;;;;;;0.40;0.30;;;;;;;25.02;23.83;95347.16;5072776;28;20484;-59
2023/04/28 10:46:06;;;;;;;0.40;0.30;;;;;;;25.47;24.01;95362.72;5073103;28;20507;-59
2023/04/28 10:49:05;;;;;;;6.80;0.80;;;;;;;24.99;22.79;95356.03;5042761;28;20953;-60
2023/04/28 10:51:35;;;;;;;0.40;0.30;;;;;;;25.66;22.87;95356.41;5071908;28;20770;-60
2023/04/28 10:54:15;;;;;;;0.40;0.30;;;;;;;24.16;22.94;95356.63;5073107;28;20464;-60
2023/04/28 10:57:18;;;;;;;0.50;0.40;;;;;;;26.42;22.70;95349.78;5048489;28;20528;-60
2023/04/28 10:59:46;;;;;;;0.40;0.30;;;;;;;28.06;21.42;95349.13;5068872;28;20500;-60
2023/04/28 11:02:38;;;;;;;0.40;0.40;;;;;;;29.12;21.27;95335.19;5072739;28;20491;-58
2023/04/28 11:05:13;;;;;;;0.40;0.30;;;;;;;28.78;22.20;95330.03;5072452;28;20444;-58
2023/04/28 11:08:01;;;;;;;0.40;0.40;;;;;;;27.40;22.31;95328.34;5072174;28;20446;-58
2023/04/28 11:11:03;;;;;;;0.50;0.30;;;;;;;26.25;22.57;95325.88;5071900;28;20853;-59
2023/04/28 11:13:33;;;;;;;0.87;0.33;;;;;;;24.50;24.43;95334.16;5072220;28;20957;-60
2023/04/28 11:16:05;;;;;;;1.90;0.70;;;;;;;25.01;24.34;95332.06;5071797;28;20861;-59
2023/04/28 11:18:49;;;;;;;0.40;0.30;;;;;;;23.93;24.35;95325.94;5071770;28;20437;-59
2023/04/28 11:21:22;;;;;;;0.40;0.30;;;;;;;24.47;25.58;95332.16;5072042;28;20511;-60
2023/04/28 11:23:51;;;;;;;0.50;0.40;;;;;;;24.75;24.92;95323.78;5072070;28;20434;-60
2023/04/28 11:26:22;;;;;;;0.60;0.60;;;;;;;23.91;25.99;95326.28;5071911;28;20473;-60
2023/04/28 11:28:53;;;;;;;0.83;0.83;;;;;;;24.58;25.70;95297.13;5072178;28;20487;-60
2023/04/28 11:31:23;;;;;;;0.40;0.33;;;;;;;25.66;23.74;95315.69;5072420;28;20442;-60
2023/04/28 11:33:59;;;;;;;0.30;0.30;;;;;;;26.31;23.48;95317.03;5071884;28;20448;-61
2023/04/28 11:36:34;;;;;;;0.50;0.40;;;;;;;25.11;24.24;95325.25;5071910;28;20885;-61
2023/04/28 11:39:06;;;;;;;0.40;0.30;;;;;;;24.67;25.28;95305.03;5072099;28;20520;-61
2023/04/28 11:41:36;;;;;;;0.40;0.30;;;;;;;24.40;25.49;95318.47;5071682;28;21068;-60
2023/04/28 11:44:13;;;;;;;0.30;0.20;;;;;;;24.41;26.76;95321.97;5072173;28;20492;-60
2023/04/28 11:46:49;;;;;;;0.70;0.70;;;;;;;24.88;24.91;95313.59;5071683;28;20444;-59
2023/04/28 11:49:18;;;;;;;0.50;0.40;;;;;;;24.28;26.35;95307.78;5071966;28;20441;-59